sensor_id;sensor_type;location;lat;lon;timestamp;temperature;humidity
2106;DHT22;1059;52.548;13.408;2023-05-07T00:02:24;11.10;99.90
2106;DHT22;1059;52.548;13.408;2023-05-07T00:04:51;11.10;99.90
2106;DHT22;1059;52.548;13.408;2023-05-07T00:07:18;11.10;99.90
2106;DHT22;1059;52.548;13.408;2023-05-07T00:09:45;11.10;99.90
2106;DHT22;1059;52.548;13.408;2023-05-07T00:12:13;11.10;99.90
2106;DHT22;1059;52.548;13.408;2023-05-07T00:14:40;11.20;99.90
2106;DHT22;1059;52.548;13.408;2023-05-07T00:17:07;11.20;99.90
2106;DHT22;1059;52.548;13.408;2023-05-07T00:19:34;11.20;99.90
2106;DHT22;1059;52.548;13.408;2023-05-07T00:22:01;11.10;99.90
2106;DHT22;1059;52.548;13.408;2023-05-07T00:24:28;11.10;99.90
2106;DHT22;1059;52.548;13.408;2023-05-07T00:26:55;11.10;99.90
2106;DHT22;1059;52.548;13.408;2023-05-07T00:29:24;11.10;99.90
2106;DHT22;1059;52.548;13.408;2023-05-07T00:31:51;11.10;99.90
2106;DHT22;1059;52.548;13.408;2023-05-07T00:34:20;11.10;99.90
2106;DHT22;1059;52.548;13.408;2023-05-07T00:36:46;11.20;99.90
2106;DHT22;1059;52.548;13.408;2023-05-07T00:39:13;11.20;99.90
2106;DHT22;1059;52.548;13.408;2023-05-07T00:41:40;11.20;99.90
2106;DHT22;1059;52.548;13.408;2023-05-07T00:44:07;11.20;99.90
2106;DHT22;1059;52.548;13.408;2023-05-07T00:46:35;11.10;99.90
2106;DHT22;1059;52.548;13.408;2023-05-07T00:49:02;11.10;99.90
2106;DHT22;1059;52.548;13.408;2023-05-07T00:51:31;11.10;99.90
2106;DHT22;1059;52.548;13.408;2023-05-07T00:54:00;11.10;99.90
2106;DHT22;1059;52.548;13.408;2023-05-07T00:56:28;11.10;99.90
2106;DHT22;1059;52.548;13.408;2023-05-07T00:58:55;11.10;99.90
2106;DHT22;1059;52.548;13.408;2023-05-07T01:01:22;11.10;99.90
2106;DHT22;1059;52.548;13.408;2023-05-07T01:03:50;11.00;99.90
2106;DHT22;1059;52.548;13.408;2023-05-07T01:06:17;11.10;99.90
2106;DHT22;1059;52.548;13.408;2023-05-07T01:08:45;11.10;99.90
2106;DHT22;1059;52.548;13.408;2023-05-07T01:11:12;11.10;99.90
2106;DHT22;1059;52.548;13.408;2023-05-07T01:13:40;11.10;99.90
2106;DHT22;1059;52.548;13.408;2023-05-07T01:16:09;11.10;99.90
2106;DHT22;1059;52.548;13.408;2023-05-07T01:18:36;11.10;99.90
2106;DHT22;1059;52.548;13.408;2023-05-07T01:21:05;11.10;99.90
2106;DHT22;1059;52.548;13.408;2023-05-07T01:23:33;11.10;99.90
2106;DHT22;1059;52.548;13.408;2023-05-07T01:26:01;11.10;99.90
2106;DHT22;1059;52.548;13.408;2023-05-07T01:28:28;11.10;99.90
2106;DHT22;1059;52.548;13.408;2023-05-07T01:31:00;11.10;99.90
2106;DHT22;1059;52.548;13.408;2023-05-07T01:33:30;11.10;99.90
2106;DHT22;1059;52.548;13.408;2023-05-07T01:35:59;11.10;99.90
2106;DHT22;1059;52.548;13.408;2023-05-07T01:38:28;11.10;99.90
2106;DHT22;1059;52.548;13.408;2023-05-07T01:40:57;11.10;99.90
2106;DHT22;1059;52.548;13.408;2023-05-07T01:43:25;11.10;99.90
2106;DHT22;1059;52.548;13.408;2023-05-07T01:45:52;11.10;99.90
2106;DHT22;1059;52.548;13.408;2023-05-07T01:48:19;11.20;99.90
2106;DHT22;1059;52.548;13.408;2023-05-07T01:50:47;11.20;99.90
2106;DHT22;1059;52.548;13.408;2023-05-07T01:53:14;11.20;99.90
2106;DHT22;1059;52.548;13.408;2023-05-07T01:55:41;11.20;99.90
2106;DHT22;1059;52.548;13.408;2023-05-07T01:58:09;11.20;99.90
2106;DHT22;1059;52.548;13.408;2023-05-07T02:00:36;11.10;99.90
2106;DHT22;1059;52.548;13.408;2023-05-07T02:03:03;11.10;99.90
2106;DHT22;1059;52.548;13.408;2023-05-07T02:05:30;11.10;99.90
2106;DHT22;1059;52.548;13.408;2023-05-07T02:07:57;11.10;99.90
2106;DHT22;1059;52.548;13.408;2023-05-07T02:10:23;11.10;99.90
2106;DHT22;1059;52.548;13.408;2023-05-07T02:12:50;11.10;99.90
2106;DHT22;1059;52.548;13.408;2023-05-07T02:15:18;11.10;99.90
2106;DHT22;1059;52.548;13.408;2023-05-07T02:17:58;11.10;99.90
2106;DHT22;1059;52.548;13.408;2023-05-07T02:20:26;11.10;99.90
2106;DHT22;1059;52.548;13.408;2023-05-07T02:22:52;11.20;99.90
2106;DHT22;1059;52.548;13.408;2023-05-07T02:25:19;11.20;99.90
2106;DHT22;1059;52.548;13.408;2023-05-07T02:27:46;11.10;99.90
2106;DHT22;1059;52.548;13.408;2023-05-07T02:30:14;11.10;99.90
2106;DHT22;1059;52.548;13.408;2023-05-07T02:32:42;11.10;99.90
2106;DHT22;1059;52.548;13.408;2023-05-07T02:35:09;11.10;99.90
2106;DHT22;1059;52.548;13.408;2023-05-07T02:37:36;11.10;99.90
2106;DHT22;1059;52.548;13.408;2023-05-07T02:40:03;11.00;99.90
2106;DHT22;1059;52.548;13.408;2023-05-07T02:42:30;11.00;99.90
2106;DHT22;1059;52.548;13.408;2023-05-07T02:44:57;11.00;99.90
2106;DHT22;1059;52.548;13.408;2023-05-07T02:47:24;11.00;99.90
2106;DHT22;1059;52.548;13.408;2023-05-07T02:49:53;11.00;99.90
2106;DHT22;1059;52.548;13.408;2023-05-07T02:52:20;11.00;99.90
2106;DHT22;1059;52.548;13.408;2023-05-07T02:54:47;11.00;99.90
2106;DHT22;1059;52.548;13.408;2023-05-07T02:57:14;11.00;99.90
2106;DHT22;1059;52.548;13.408;2023-05-07T02:59:41;11.00;99.90
2106;DHT22;1059;52.548;13.408;2023-05-07T03:02:08;11.10;99.90
2106;DHT22;1059;52.548;13.408;2023-05-07T03:04:35;11.10;99.90
2106;DHT22;1059;52.548;13.408;2023-05-07T03:07:03;11.00;99.90
2106;DHT22;1059;52.548;13.408;2023-05-07T03:09:30;11.00;99.90
2106;DHT22;1059;52.548;13.408;2023-05-07T03:11:57;11.00;99.90
2106;DHT22;1059;52.548;13.408;2023-05-07T03:14:24;11.00;99.90
2106;DHT22;1059;52.548;13.408;2023-05-07T03:16:51;11.00;99.90
2106;DHT22;1059;52.548;13.408;2023-05-07T03:19:17;11.00;99.90
2106;DHT22;1059;52.548;13.408;2023-05-07T03:21:44;11.00;99.90
2106;DHT22;1059;52.548;13.408;2023-05-07T03:24:12;11.00;99.90
2106;DHT22;1059;52.548;13.408;2023-05-07T03:26:39;10.90;99.90
2106;DHT22;1059;52.548;13.408;2023-05-07T03:29:06;11.00;99.90
2106;DHT22;1059;52.548;13.408;2023-05-07T03:31:33;10.90;99.90
2106;DHT22;1059;52.548;13.408;2023-05-07T03:34:00;10.90;99.90
2106;DHT22;1059;52.548;13.408;2023-05-07T03:36:27;11.00;99.90
2106;DHT22;1059;52.548;13.408;2023-05-07T03:38:54;11.00;99.90
2106;DHT22;1059;52.548;13.408;2023-05-07T03:41:22;10.90;99.90
2106;DHT22;1059;52.548;13.408;2023-05-07T03:43:49;10.90;99.90
2106;DHT22;1059;52.548;13.408;2023-05-07T03:46:15;10.90;99.90
2106;DHT22;1059;52.548;13.408;2023-05-07T03:48:42;10.90;99.90
2106;DHT22;1059;52.548;13.408;2023-05-07T03:51:09;10.90;99.90
2106;DHT22;1059;52.548;13.408;2023-05-07T03:53:36;10.80;99.90
2106;DHT22;1059;52.548;13.408;2023-05-07T03:56:03;10.80;99.90
2106;DHT22;1059;52.548;13.408;2023-05-07T03:58:31;10.80;99.90
2106;DHT22;1059;52.548;13.408;2023-05-07T04:00:58;10.80;99.90
2106;DHT22;1059;52.548;13.408;2023-05-07T04:03:25;10.80;99.90
2106;DHT22;1059;52.548;13.408;2023-05-07T04:05:52;10.80;99.90
2106;DHT22;1059;52.548;13.408;2023-05-07T04:08:19;10.80;99.90
2106;DHT22;1059;52.548;13.408;2023-05-07T04:10:45;10.80;99.90
2106;DHT22;1059;52.548;13.408;2023-05-07T04:13:13;10.90;99.90
2106;DHT22;1059;52.548;13.408;2023-05-07T04:15:41;10.90;99.90
2106;DHT22;1059;52.548;13.408;2023-05-07T04:18:07;10.90;99.90
2106;DHT22;1059;52.548;13.408;2023-05-07T04:20:34;10.90;99.90
2106;DHT22;1059;52.548;13.408;2023-05-07T04:23:02;10.90;99.90
2106;DHT22;1059;52.548;13.408;2023-05-07T04:25:29;10.80;99.90
2106;DHT22;1059;52.548;13.408;2023-05-07T04:27:56;10.80;99.90
2106;DHT22;1059;52.548;13.408;2023-05-07T04:30:23;10.80;99.90
2106;DHT22;1059;52.548;13.408;2023-05-07T04:32:51;10.80;99.90
2106;DHT22;1059;52.548;13.408;2023-05-07T04:35:18;10.90;99.90
2106;DHT22;1059;52.548;13.408;2023-05-07T04:37:45;10.90;99.90
2106;DHT22;1059;52.548;13.408;2023-05-07T04:40:12;11.00;99.90
2106;DHT22;1059;52.548;13.408;2023-05-07T04:42:39;11.00;99.90
2106;DHT22;1059;52.548;13.408;2023-05-07T04:45:06;11.00;99.90
2106;DHT22;1059;52.548;13.408;2023-05-07T04:47:34;11.00;99.90
2106;DHT22;1059;52.548;13.408;2023-05-07T04:50:02;11.00;99.90
2106;DHT22;1059;52.548;13.408;2023-05-07T04:52:29;11.00;99.90
2106;DHT22;1059;52.548;13.408;2023-05-07T04:54:58;11.10;99.90
2106;DHT22;1059;52.548;13.408;2023-05-07T04:57:25;11.00;99.90
2106;DHT22;1059;52.548;13.408;2023-05-07T04:59:52;11.10;99.90
2106;DHT22;1059;52.548;13.408;2023-05-07T05:02:19;11.00;99.90
2106;DHT22;1059;52.548;13.408;2023-05-07T05:04:46;11.00;99.90
2106;DHT22;1059;52.548;13.408;2023-05-07T05:07:14;11.10;99.90
2106;DHT22;1059;52.548;13.408;2023-05-07T05:09:41;11.10;99.90
2106;DHT22;1059;52.548;13.408;2023-05-07T05:12:07;11.20;99.90
2106;DHT22;1059;52.548;13.408;2023-05-07T05:14:34;11.20;99.90
2106;DHT22;1059;52.548;13.408;2023-05-07T05:17:01;11.30;99.90
2106;DHT22;1059;52.548;13.408;2023-05-07T05:19:28;11.40;99.90
2106;DHT22;1059;52.548;13.408;2023-05-07T05:21:55;11.40;99.90
2106;DHT22;1059;52.548;13.408;2023-05-07T05:24:23;11.40;99.90
2106;DHT22;1059;52.548;13.408;2023-05-07T05:26:51;11.40;99.90
2106;DHT22;1059;52.548;13.408;2023-05-07T05:29:19;11.50;99.90
2106;DHT22;1059;52.548;13.408;2023-05-07T05:31:46;11.50;99.90
2106;DHT22;1059;52.548;13.408;2023-05-07T05:34:13;11.50;99.90
2106;DHT22;1059;52.548;13.408;2023-05-07T05:36:39;11.50;99.90
2106;DHT22;1059;52.548;13.408;2023-05-07T05:39:06;11.50;99.90
2106;DHT22;1059;52.548;13.408;2023-05-07T05:41:35;11.60;99.90
2106;DHT22;1059;52.548;13.408;2023-05-07T05:44:02;11.60;99.90
2106;DHT22;1059;52.548;13.408;2023-05-07T05:46:29;11.60;99.90
2106;DHT22;1059;52.548;13.408;2023-05-07T05:48:56;11.70;99.90
2106;DHT22;1059;52.548;13.408;2023-05-07T05:51:23;11.80;99.90
2106;DHT22;1059;52.548;13.408;2023-05-07T05:53:50;11.80;99.90
2106;DHT22;1059;52.548;13.408;2023-05-07T05:56:17;11.90;99.90
2106;DHT22;1059;52.548;13.408;2023-05-07T05:58:46;11.90;99.90
2106;DHT22;1059;52.548;13.408;2023-05-07T06:01:13;11.90;99.90
2106;DHT22;1059;52.548;13.408;2023-05-07T06:03:40;11.90;99.90
2106;DHT22;1059;52.548;13.408;2023-05-07T06:06:06;12.00;99.90
2106;DHT22;1059;52.548;13.408;2023-05-07T06:08:33;12.00;99.90
2106;DHT22;1059;52.548;13.408;2023-05-07T06:11:01;12.00;99.90
2106;DHT22;1059;52.548;13.408;2023-05-07T06:13:28;12.00;99.90
2106;DHT22;1059;52.548;13.408;2023-05-07T06:15:56;12.10;99.90
2106;DHT22;1059;52.548;13.408;2023-05-07T06:18:23;12.10;99.90
2106;DHT22;1059;52.548;13.408;2023-05-07T06:20:51;12.20;99.90
2106;DHT22;1059;52.548;13.408;2023-05-07T06:23:18;12.20;99.90
2106;DHT22;1059;52.548;13.408;2023-05-07T06:25:48;12.20;99.90
2106;DHT22;1059;52.548;13.408;2023-05-07T06:28:15;12.30;99.90
2106;DHT22;1059;52.548;13.408;2023-05-07T06:30:42;12.40;99.90
2106;DHT22;1059;52.548;13.408;2023-05-07T06:33:10;12.50;99.90
2106;DHT22;1059;52.548;13.408;2023-05-07T06:35:37;12.60;99.90
2106;DHT22;1059;52.548;13.408;2023-05-07T06:38:04;12.80;99.90
2106;DHT22;1059;52.548;13.408;2023-05-07T06:40:31;12.90;99.90
2106;DHT22;1059;52.548;13.408;2023-05-07T06:42:58;12.90;99.90
2106;DHT22;1059;52.548;13.408;2023-05-07T06:45:25;13.00;99.90
2106;DHT22;1059;52.548;13.408;2023-05-07T06:47:51;13.10;99.90
2106;DHT22;1059;52.548;13.408;2023-05-07T06:50:22;13.10;99.90
2106;DHT22;1059;52.548;13.408;2023-05-07T06:52:49;13.20;99.90
2106;DHT22;1059;52.548;13.408;2023-05-07T06:55:15;13.20;99.90
2106;DHT22;1059;52.548;13.408;2023-05-07T06:57:42;13.20;99.90
2106;DHT22;1059;52.548;13.408;2023-05-07T07:00:10;13.20;99.90
2106;DHT22;1059;52.548;13.408;2023-05-07T07:02:37;13.30;99.90
2106;DHT22;1059;52.548;13.408;2023-05-07T07:05:05;13.40;99.90
2106;DHT22;1059;52.548;13.408;2023-05-07T07:07:33;13.40;99.90
2106;DHT22;1059;52.548;13.408;2023-05-07T07:10:00;13.20;99.90
2106;DHT22;1059;52.548;13.408;2023-05-07T07:12:27;13.10;99.90
2106;DHT22;1059;52.548;13.408;2023-05-07T07:14:55;13.10;99.90
2106;DHT22;1059;52.548;13.408;2023-05-07T07:17:22;13.20;99.90
2106;DHT22;1059;52.548;13.408;2023-05-07T07:19:48;13.20;99.90
2106;DHT22;1059;52.548;13.408;2023-05-07T07:22:16;13.20;99.90
2106;DHT22;1059;52.548;13.408;2023-05-07T07:24:44;13.30;99.90
2106;DHT22;1059;52.548;13.408;2023-05-07T07:27:11;13.40;99.90
2106;DHT22;1059;52.548;13.408;2023-05-07T07:29:38;13.20;99.90
2106;DHT22;1059;52.548;13.408;2023-05-07T07:32:04;13.10;99.90
2106;DHT22;1059;52.548;13.408;2023-05-07T07:34:32;13.20;99.90
2106;DHT22;1059;52.548;13.408;2023-05-07T07:36:58;13.10;99.90
2106;DHT22;1059;52.548;13.408;2023-05-07T07:39:30;13.20;99.90
2106;DHT22;1059;52.548;13.408;2023-05-07T07:41:59;13.20;99.90
2106;DHT22;1059;52.548;13.408;2023-05-07T07:44:27;13.20;99.90
2106;DHT22;1059;52.548;13.408;2023-05-07T07:46:53;13.30;99.90
2106;DHT22;1059;52.548;13.408;2023-05-07T07:49:20;13.30;99.90
2106;DHT22;1059;52.548;13.408;2023-05-07T07:51:47;13.40;99.90
2106;DHT22;1059;52.548;13.408;2023-05-07T07:54:14;13.40;99.90
2106;DHT22;1059;52.548;13.408;2023-05-07T07:56:41;13.40;99.90
2106;DHT22;1059;52.548;13.408;2023-05-07T07:59:10;13.40;99.90
2106;DHT22;1059;52.548;13.408;2023-05-07T08:01:36;13.40;99.90
2106;DHT22;1059;52.548;13.408;2023-05-07T08:04:03;13.30;99.90
2106;DHT22;1059;52.548;13.408;2023-05-07T08:06:31;13.30;99.90
2106;DHT22;1059;52.548;13.408;2023-05-07T08:08:58;13.30;99.90
2106;DHT22;1059;52.548;13.408;2023-05-07T08:11:25;13.30;99.90
2106;DHT22;1059;52.548;13.408;2023-05-07T08:13:51;13.40;99.90
2106;DHT22;1059;52.548;13.408;2023-05-07T08:16:20;13.50;99.90
2106;DHT22;1059;52.548;13.408;2023-05-07T08:18:47;13.60;99.90
2106;DHT22;1059;52.548;13.408;2023-05-07T08:21:14;13.70;99.90
2106;DHT22;1059;52.548;13.408;2023-05-07T08:23:40;13.70;99.90
2106;DHT22;1059;52.548;13.408;2023-05-07T08:26:09;13.80;99.90
2106;DHT22;1059;52.548;13.408;2023-05-07T08:28:35;13.90;99.90
2106;DHT22;1059;52.548;13.408;2023-05-07T08:31:02;13.90;99.90
2106;DHT22;1059;52.548;13.408;2023-05-07T08:33:30;13.90;99.90
2106;DHT22;1059;52.548;13.408;2023-05-07T08:35:57;14.00;99.90
2106;DHT22;1059;52.548;13.408;2023-05-07T08:38:24;14.00;99.90
2106;DHT22;1059;52.548;13.408;2023-05-07T08:40:51;14.00;99.90
2106;DHT22;1059;52.548;13.408;2023-05-07T08:43:19;14.10;99.90
2106;DHT22;1059;52.548;13.408;2023-05-07T08:45:49;14.20;99.90
2106;DHT22;1059;52.548;13.408;2023-05-07T08:48:22;14.40;99.90
2106;DHT22;1059;52.548;13.408;2023-05-07T08:50:53;14.50;99.90
2106;DHT22;1059;52.548;13.408;2023-05-07T08:53:20;14.50;99.90
2106;DHT22;1059;52.548;13.408;2023-05-07T08:55:47;14.50;99.90
2106;DHT22;1059;52.548;13.408;2023-05-07T08:58:15;14.60;99.90
2106;DHT22;1059;52.548;13.408;2023-05-07T09:00:41;14.60;99.90
2106;DHT22;1059;52.548;13.408;2023-05-07T09:03:08;14.70;99.90
2106;DHT22;1059;52.548;13.408;2023-05-07T09:05:37;14.80;99.90
2106;DHT22;1059;52.548;13.408;2023-05-07T09:08:06;14.90;99.90
2106;DHT22;1059;52.548;13.408;2023-05-07T09:10:34;15.00;99.90
2106;DHT22;1059;52.548;13.408;2023-05-07T09:13:01;15.10;99.90
2106;DHT22;1059;52.548;13.408;2023-05-07T09:15:28;15.20;99.90
2106;DHT22;1059;52.548;13.408;2023-05-07T09:17:59;15.30;99.90
2106;DHT22;1059;52.548;13.408;2023-05-07T09:20:29;15.30;99.90
2106;DHT22;1059;52.548;13.408;2023-05-07T09:22:56;15.40;99.90
2106;DHT22;1059;52.548;13.408;2023-05-07T09:25:29;15.50;99.90
2106;DHT22;1059;52.548;13.408;2023-05-07T09:27:57;15.60;99.90
2106;DHT22;1059;52.548;13.408;2023-05-07T09:30:27;15.70;99.90
2106;DHT22;1059;52.548;13.408;2023-05-07T09:32:55;15.90;99.90
2106;DHT22;1059;52.548;13.408;2023-05-07T09:35:21;15.90;99.90
2106;DHT22;1059;52.548;13.408;2023-05-07T09:37:52;15.90;99.90
2106;DHT22;1059;52.548;13.408;2023-05-07T09:40:21;16.00;99.90
2106;DHT22;1059;52.548;13.408;2023-05-07T09:42:50;16.10;99.90
2106;DHT22;1059;52.548;13.408;2023-05-07T09:45:21;16.10;99.90
2106;DHT22;1059;52.548;13.408;2023-05-07T09:47:49;16.00;99.90
2106;DHT22;1059;52.548;13.408;2023-05-07T09:50:22;16.00;99.90
2106;DHT22;1059;52.548;13.408;2023-05-07T09:52:52;15.90;99.90
2106;DHT22;1059;52.548;13.408;2023-05-07T09:55:20;15.70;99.90
2106;DHT22;1059;52.548;13.408;2023-05-07T09:57:49;15.60;99.90
2106;DHT22;1059;52.548;13.408;2023-05-07T10:00:18;15.60;99.90
2106;DHT22;1059;52.548;13.408;2023-05-07T10:02:47;15.60;99.90
2106;DHT22;1059;52.548;13.408;2023-05-07T10:05:15;15.60;99.90
2106;DHT22;1059;52.548;13.408;2023-05-07T10:07:43;15.80;99.90
2106;DHT22;1059;52.548;13.408;2023-05-07T10:10:11;15.90;99.90
2106;DHT22;1059;52.548;13.408;2023-05-07T10:12:38;16.00;99.90
2106;DHT22;1059;52.548;13.408;2023-05-07T10:15:09;16.10;99.90
2106;DHT22;1059;52.548;13.408;2023-05-07T10:17:37;16.30;99.90
2106;DHT22;1059;52.548;13.408;2023-05-07T10:20:05;16.40;99.90
2106;DHT22;1059;52.548;13.408;2023-05-07T10:22:41;16.60;99.90
2106;DHT22;1059;52.548;13.408;2023-05-07T10:25:14;16.90;99.90
2106;DHT22;1059;52.548;13.408;2023-05-07T10:27:44;17.20;99.90
2106;DHT22;1059;52.548;13.408;2023-05-07T10:30:24;17.40;99.90
2106;DHT22;1059;52.548;13.408;2023-05-07T10:32:55;17.60;99.90
2106;DHT22;1059;52.548;13.408;2023-05-07T10:35:26;17.80;99.90
2106;DHT22;1059;52.548;13.408;2023-05-07T10:37:56;18.00;99.90
2106;DHT22;1059;52.548;13.408;2023-05-07T10:40:23;18.10;99.90
2106;DHT22;1059;52.548;13.408;2023-05-07T10:42:54;18.30;99.90
2106;DHT22;1059;52.548;13.408;2023-05-07T10:45:23;18.50;99.90
2106;DHT22;1059;52.548;13.408;2023-05-07T10:48:06;18.60;99.90
2106;DHT22;1059;52.548;13.408;2023-05-07T10:50:33;18.70;99.90
2106;DHT22;1059;52.548;13.408;2023-05-07T10:53:23;18.80;99.90
2106;DHT22;1059;52.548;13.408;2023-05-07T10:56:24;18.80;99.90
2106;DHT22;1059;52.548;13.408;2023-05-07T10:58:52;18.90;99.90
2106;DHT22;1059;52.548;13.408;2023-05-07T11:04:17;19.10;99.90
2106;DHT22;1059;52.548;13.408;2023-05-07T11:07:24;19.30;99.90
2106;DHT22;1059;52.548;13.408;2023-05-07T11:09:55;19.60;99.90
2106;DHT22;1059;52.548;13.408;2023-05-07T11:12:51;19.60;99.90
2106;DHT22;1059;52.548;13.408;2023-05-07T11:15:50;19.70;99.90
2106;DHT22;1059;52.548;13.408;2023-05-07T11:18:18;19.90;98.90
2106;DHT22;1059;52.548;13.408;2023-05-07T11:20:48;19.90;97.00
2106;DHT22;1059;52.548;13.408;2023-05-07T11:23:56;20.30;98.90
2106;DHT22;1059;52.548;13.408;2023-05-07T11:26:24;21.40;96.70
2106;DHT22;1059;52.548;13.408;2023-05-07T11:28:52;22.70;89.60
2106;DHT22;1059;52.548;13.408;2023-05-07T11:31:24;23.80;81.00
2106;DHT22;1059;52.548;13.408;2023-05-07T11:33:52;25.00;75.40
2106;DHT22;1059;52.548;13.408;2023-05-07T11:36:22;26.00;61.60
2106;DHT22;1059;52.548;13.408;2023-05-07T11:38:49;26.90;52.50
2106;DHT22;1059;52.548;13.408;2023-05-07T11:41:17;28.00;47.90
2106;DHT22;1059;52.548;13.408;2023-05-07T11:43:59;28.80;41.80
2106;DHT22;1059;52.548;13.408;2023-05-07T11:46:27;29.20;39.90
2106;DHT22;1059;52.548;13.408;2023-05-07T11:48:54;29.50;34.90
2106;DHT22;1059;52.548;13.408;2023-05-07T11:51:23;29.80;35.00
2106;DHT22;1059;52.548;13.408;2023-05-07T11:53:51;30.00;33.10
2106;DHT22;1059;52.548;13.408;2023-05-07T11:56:19;30.10;31.40
2106;DHT22;1059;52.548;13.408;2023-05-07T11:58:47;29.90;30.40
2106;DHT22;1059;52.548;13.408;2023-05-07T12:01:15;29.60;31.30
2106;DHT22;1059;52.548;13.408;2023-05-07T12:03:44;29.70;30.90
2106;DHT22;1059;52.548;13.408;2023-05-07T12:06:14;29.40;29.60
2106;DHT22;1059;52.548;13.408;2023-05-07T12:08:43;29.10;29.30
2106;DHT22;1059;52.548;13.408;2023-05-07T12:11:14;28.60;29.90
2106;DHT22;1059;52.548;13.408;2023-05-07T12:13:43;28.40;28.60
2106;DHT22;1059;52.548;13.408;2023-05-07T12:16:10;28.50;30.40
2106;DHT22;1059;52.548;13.408;2023-05-07T12:18:37;28.00;28.60
2106;DHT22;1059;52.548;13.408;2023-05-07T12:21:05;28.50;30.30
2106;DHT22;1059;52.548;13.408;2023-05-07T12:23:34;29.00;29.00
2106;DHT22;1059;52.548;13.408;2023-05-07T12:26:03;29.70;28.40
2106;DHT22;1059;52.548;13.408;2023-05-07T12:28:32;30.20;27.30
2106;DHT22;1059;52.548;13.408;2023-05-07T12:31:03;30.40;26.50
2106;DHT22;1059;52.548;13.408;2023-05-07T12:33:31;30.40;26.90
2106;DHT22;1059;52.548;13.408;2023-05-07T12:35:58;30.70;26.40
2106;DHT22;1059;52.548;13.408;2023-05-07T12:38:35;31.30;26.10
2106;DHT22;1059;52.548;13.408;2023-05-07T12:41:04;32.10;25.00
2106;DHT22;1059;52.548;13.408;2023-05-07T12:43:31;32.20;23.10
2106;DHT22;1059;52.548;13.408;2023-05-07T12:46:00;31.80;22.90
2106;DHT22;1059;52.548;13.408;2023-05-07T12:48:28;30.90;23.10
2106;DHT22;1059;52.548;13.408;2023-05-07T12:50:55;30.40;24.20
2106;DHT22;1059;52.548;13.408;2023-05-07T12:53:23;30.20;23.80
2106;DHT22;1059;52.548;13.408;2023-05-07T12:55:52;30.00;24.00
2106;DHT22;1059;52.548;13.408;2023-05-07T12:58:24;30.30;24.10
2106;DHT22;1059;52.548;13.408;2023-05-07T13:00:51;30.70;23.90
2106;DHT22;1059;52.548;13.408;2023-05-07T13:03:23;31.30;24.10
2106;DHT22;1059;52.548;13.408;2023-05-07T13:05:50;31.50;23.20
2106;DHT22;1059;52.548;13.408;2023-05-07T13:08:27;31.90;23.10
2106;DHT22;1059;52.548;13.408;2023-05-07T13:10:54;32.20;22.30
2106;DHT22;1059;52.548;13.408;2023-05-07T13:13:23;32.60;22.30
2106;DHT22;1059;52.548;13.408;2023-05-07T13:15:50;32.60;21.60
2106;DHT22;1059;52.548;13.408;2023-05-07T13:18:17;32.10;21.60
2106;DHT22;1059;52.548;13.408;2023-05-07T13:20:44;31.30;21.40
2106;DHT22;1059;52.548;13.408;2023-05-07T13:23:11;30.80;22.50
2106;DHT22;1059;52.548;13.408;2023-05-07T13:25:38;30.20;22.10
2106;DHT22;1059;52.548;13.408;2023-05-07T13:28:05;29.60;22.00
2106;DHT22;1059;52.548;13.408;2023-05-07T13:30:33;29.20;23.00
2106;DHT22;1059;52.548;13.408;2023-05-07T13:33:01;28.80;23.80
2106;DHT22;1059;52.548;13.408;2023-05-07T13:35:28;28.60;23.70
2106;DHT22;1059;52.548;13.408;2023-05-07T13:37:55;28.80;23.70
2106;DHT22;1059;52.548;13.408;2023-05-07T13:40:22;29.30;23.20
2106;DHT22;1059;52.548;13.408;2023-05-07T13:42:49;30.10;23.50
2106;DHT22;1059;52.548;13.408;2023-05-07T13:45:16;30.80;22.30
2106;DHT22;1059;52.548;13.408;2023-05-07T13:47:45;30.90;21.60
2106;DHT22;1059;52.548;13.408;2023-05-07T13:50:12;30.60;21.20
2106;DHT22;1059;52.548;13.408;2023-05-07T13:52:41;30.00;21.70
2106;DHT22;1059;52.548;13.408;2023-05-07T13:55:09;29.60;22.30
2106;DHT22;1059;52.548;13.408;2023-05-07T13:57:36;29.60;21.90
2106;DHT22;1059;52.548;13.408;2023-05-07T14:00:04;29.80;21.30
2106;DHT22;1059;52.548;13.408;2023-05-07T14:02:31;29.70;22.30
2106;DHT22;1059;52.548;13.408;2023-05-07T14:05:00;29.90;22.90
2106;DHT22;1059;52.548;13.408;2023-05-07T14:07:26;30.20;22.00
2106;DHT22;1059;52.548;13.408;2023-05-07T14:09:54;30.10;21.90
2106;DHT22;1059;52.548;13.408;2023-05-07T14:12:20;29.90;22.00
2106;DHT22;1059;52.548;13.408;2023-05-07T14:14:47;29.30;22.50
2106;DHT22;1059;52.548;13.408;2023-05-07T14:17:15;29.20;23.10
2106;DHT22;1059;52.548;13.408;2023-05-07T14:19:42;29.50;23.10
2106;DHT22;1059;52.548;13.408;2023-05-07T14:22:12;30.00;22.60
2106;DHT22;1059;52.548;13.408;2023-05-07T14:24:39;30.70;22.40
2106;DHT22;1059;52.548;13.408;2023-05-07T14:27:06;31.30;20.80
2106;DHT22;1059;52.548;13.408;2023-05-07T14:29:33;31.20;21.10
2106;DHT22;1059;52.548;13.408;2023-05-07T14:32:03;31.60;21.40
2106;DHT22;1059;52.548;13.408;2023-05-07T14:34:31;32.00;20.60
2106;DHT22;1059;52.548;13.408;2023-05-07T14:36:59;32.20;19.80
2106;DHT22;1059;52.548;13.408;2023-05-07T14:39:27;32.30;20.50
2106;DHT22;1059;52.548;13.408;2023-05-07T14:41:55;32.30;19.80
2106;DHT22;1059;52.548;13.408;2023-05-07T14:44:21;32.60;19.90
2106;DHT22;1059;52.548;13.408;2023-05-07T14:46:48;32.80;19.20
2106;DHT22;1059;52.548;13.408;2023-05-07T14:49:15;33.10;19.30
2106;DHT22;1059;52.548;13.408;2023-05-07T14:51:43;33.10;18.80
2106;DHT22;1059;52.548;13.408;2023-05-07T14:54:11;32.80;19.10
2106;DHT22;1059;52.548;13.408;2023-05-07T14:56:40;32.00;18.50
2106;DHT22;1059;52.548;13.408;2023-05-07T14:59:07;31.10;19.20
2106;DHT22;1059;52.548;13.408;2023-05-07T15:01:35;30.40;19.90
2106;DHT22;1059;52.548;13.408;2023-05-07T15:04:03;29.50;20.50
2106;DHT22;1059;52.548;13.408;2023-05-07T15:06:30;28.70;21.10
2106;DHT22;1059;52.548;13.408;2023-05-07T15:08:57;28.10;21.90
2106;DHT22;1059;52.548;13.408;2023-05-07T15:11:24;27.50;22.80
2106;DHT22;1059;52.548;13.408;2023-05-07T15:13:52;27.30;22.80
2106;DHT22;1059;52.548;13.408;2023-05-07T15:16:19;26.90;23.20
2106;DHT22;1059;52.548;13.408;2023-05-07T15:18:46;26.60;23.60
2106;DHT22;1059;52.548;13.408;2023-05-07T15:21:13;25.80;23.50
2106;DHT22;1059;52.548;13.408;2023-05-07T15:23:39;25.20;24.60
2106;DHT22;1059;52.548;13.408;2023-05-07T15:26:07;24.80;25.10
2106;DHT22;1059;52.548;13.408;2023-05-07T15:28:34;24.60;25.80
2106;DHT22;1059;52.548;13.408;2023-05-07T15:31:02;24.30;26.00
2106;DHT22;1059;52.548;13.408;2023-05-07T15:33:30;24.10;26.40
2106;DHT22;1059;52.548;13.408;2023-05-07T15:35:57;23.70;26.70
2106;DHT22;1059;52.548;13.408;2023-05-07T15:38:25;23.70;27.10
2106;DHT22;1059;52.548;13.408;2023-05-07T15:40:51;23.60;27.20
2106;DHT22;1059;52.548;13.408;2023-05-07T15:43:18;23.40;27.20
2106;DHT22;1059;52.548;13.408;2023-05-07T15:45:46;23.20;27.60
2106;DHT22;1059;52.548;13.408;2023-05-07T15:48:14;23.10;27.60
2106;DHT22;1059;52.548;13.408;2023-05-07T15:50:41;22.80;27.90
2106;DHT22;1059;52.548;13.408;2023-05-07T15:53:07;22.60;28.10
2106;DHT22;1059;52.548;13.408;2023-05-07T15:55:35;22.30;28.40